Agra, Kansas
Current Conditions -  °F | °C
As of 11:53 AM on Tuesday 21 Oct 2014 (Local Time) from KHLC Reporting Station
Clear Clear  
Wind Chill: 70°   Ceiling: Unl
Heat Index: 70°   Visibility: 10mi
Dew Point: 58°   Wind: 13mph
Humidity: 65%   Direction: 170°S
Pressure: 30.07"   Gusts: 22mph
Location:  39.76°N, 99.12°W
Report Text: KHLC 211653Z AUTO 17011G19KT 10SM CLR 21/14 A3007 RMK AO2 SLP172 T02110144 PNO $
Loading
Personal Weather Stations






























Interactive Weather Map
Tropical Storm Tracking
New forecast layout! Learn more

10-Day Weather Forecast

Advertisements
Track Severe Weather on mobile